Jepson Prairie Reserve, California Weather observations

Data are for 10 minute period ending at time listed.
 Day   Time   Solar   Ave.   Ave.  Ave.  Vector  Max.   Baro.   Total    
  of    of     Rad.   Air    Rel.  Wind   Wind   Wind  Press.  Precip.   
Year   Day            Temp.  Hum.  Speed  Dir.   Gust                    
2015   (PST)  Kw/m2    F      %     mph   deg.    mph    mb.     in.     
-------------------------------------------------------------------------
 110    0:00   0.00   54.8    88   21.5   216    26.6   1007.5    0.00 
 110    0:10   0.00   54.6    88   19.9   216    26.7   1007.1    0.00 
 110    0:20   0.00   54.4    89   19.3   218    24.9   1007.1    0.00 
 110    0:30   0.00   54.4    89   19.4   216    25.0   1007.5    0.00 
 110    0:40   0.00   54.3    89   18.1   216    25.4   1007.5    0.00 
 110    0:50   0.00   54.1    89   19.8   217    25.4   1007.5    0.00 
 110    1:00   0.00   54.0    90   20.4   216    26.9   1007.1    0.00 
 110    1:10   0.00   53.8    90   22.9   218    30.5   1007.1    0.00 
 110    1:20   0.00   53.6    91   22.2   217    28.0   1007.1    0.00 
 110    1:30   0.00   53.4    91   23.0   219    29.5   1007.1    0.00 
 110    1:40   0.00   53.2    91   24.2   220    31.1   1006.8    0.00 
 110    1:50   0.00   53.2    92   24.5   219    31.4   1006.8    0.00 
 110    2:00   0.00   53.2    91   26.0   217    34.3   1006.8    0.00 
 110    2:10   0.00   53.1    91   25.4   218    32.3   1006.8    0.00 
 110    2:20   0.00   53.2    91   26.8   220    34.4   1006.8    0.00 
 110    2:30   0.00   53.0    92   25.8   220    33.7   1006.8    0.00 
 110    2:40   0.00   52.9    92   26.1   221    33.2   1007.1    0.00 
 110    2:50   0.00   52.8    92   25.0   218    32.3   1007.1    0.00 
 110    3:00   0.00   52.8    92   24.0   220    32.8   1007.1    0.00 
 110    3:10   0.00   52.8    93   24.8   220    31.9   1007.1    0.00 
 110    3:20   0.00   52.9    92   26.4   218    34.6   1007.1    0.00 
 110    3:30   0.00   52.8    92   27.2   218    35.7   1006.8    0.00 
 110    3:40   0.00   52.8    92   26.8   220    34.4   1006.8    0.00 
 110    3:50   0.00   52.8    93   25.8   219    33.0   1006.8    0.00 
 110    4:00   0.00   52.7    93   25.5   219    33.1   1007.1    0.00 
 110    4:10   0.00   52.7    93   24.9   219    32.8   1007.1    0.00 
 110    4:20   0.00   52.8    93   25.8   219    32.4   1007.1    0.00 
 110    4:30   0.00   52.6    94   23.0   219    30.0   1007.1    0.00 
 110    4:40   0.00   52.6    94   23.6   219    30.5   1007.1    0.00 
 110    4:50   0.00   52.6    93   23.8   219    32.1   1007.1    0.00 
 110    5:00   0.00   52.6    93   24.5   218    31.5   1007.1    0.00 
 110    5:10   0.00   52.6    94   23.1   219    33.1   1007.1    0.00 
 110    5:20   0.00   52.6    94   22.7   218    28.9   1007.1    0.00 
 110    5:30   0.01   52.5    93   22.0   219    27.7   1007.5    0.00 
 110    5:40   0.01   52.4    94   19.8   220    25.7   1007.5    0.00 
 110    5:50   0.03   52.6    94   20.7   221    27.2   1007.8    0.00 
 110    6:00   0.05   52.7    93   18.9   219    25.4   1007.8    0.00 
 110    6:10   0.07   52.9    93   18.7   221    23.8   1007.8    0.00 
 110    6:20   0.10   53.4    91   19.2   222    24.8   1008.1    0.00 
 110    6:30   0.14   53.9    90   20.4   222    25.6   1008.1    0.00 
 110    6:40   0.17   54.4    89   21.9   221    27.0   1008.5    0.00 
 110    6:50   0.20   54.9    88   21.2   220    26.2   1008.5    0.00 
 110    7:00   0.23   55.4    87   21.7   217    29.1   1008.5    0.00 
 110    7:10   0.26   55.6    86   23.5   218    27.5   1008.5    0.00 
 110    7:20   0.30   56.3    84   20.7   219    28.7   1008.8    0.00 
 110    7:30   0.33   56.9    82   22.6   219    28.6   1008.8    0.00 
 110    7:40   0.36   57.2    81   22.8   217    28.9   1008.8    0.00 
 110    7:50   0.40   57.7    80   22.9   214    28.4   1008.8    0.00 
 110    8:00   0.43   57.9    80   24.4   218    29.4   1008.8    0.00 
 110    8:10   0.46   58.4    78   22.9   220    29.1   1008.8    0.00 
 110    8:20   0.49   58.7    77   25.1   218    31.0   1008.8    0.00 
 110    8:30   0.52   59.4    76   24.0   223    31.9   1008.8    0.00 
 110    8:40   0.55   60.1    74   23.3   224    29.2   1008.8    0.00 
 110    8:50   0.58   60.9    72   22.4   218    28.4   1009.1    0.00 
 110    9:00   0.61   60.9    72   23.1   218    28.1   1009.1    0.00 
 110    9:10   0.64   61.2    71   22.2   223    27.7   1009.1    0.00 
 110    9:20   0.66   61.8    70   21.2   222    25.7   1009.1    0.00 
 110    9:30   0.69   62.2    69   20.9   221    25.7   1009.5    0.00 
 110    9:40   0.71   62.4    69   21.3   217    25.9   1009.5    0.00 
 110    9:50   0.73   63.4    67   21.4   216    26.0   1009.5    0.00 
 110   10:00   0.75   63.4    67   20.9   222    24.9   1009.5    0.00 
 110   10:10   0.77   63.9    66   19.6   222    24.6   1009.5    0.00 
 110   10:20   0.79   64.6    65   19.2   218    23.8   1009.5    0.00 
 110   10:30   0.81   64.5    64   20.4   222    25.4   1009.1    0.00 
 110   10:40   0.82   65.1    64   20.3   226    24.3   1009.1    0.00 
 110   10:50   0.84   65.5    63   20.2   228    25.6   1009.1    0.00 
 110   11:00   0.85   65.8    63   19.5   219    25.8   1009.1    0.00 
 110   11:10   0.86   66.7    62   19.8   227    24.8   1008.8    0.00 
 110   11:20   0.87   66.8    62   19.6   217    24.3   1008.8    0.00 
 110   11:30   0.88   67.4    61   19.7   220    26.0   1008.5    0.00 
 110   11:40   0.89   68.1    60   19.4   221    24.0   1008.5    0.00 
 110   11:50   0.89   68.2    61   20.8   214    25.4   1008.5    0.00 
 110   12:00   0.89   68.3    61   20.8   214    26.3   1008.1    0.00 
 110   12:10   0.89   68.6    60   20.9   214    27.0   1008.1    0.00 
 110   12:20   0.89   68.9    60   20.3   213    28.2   1008.1    0.00 
 110   12:30   0.90   70.0    58   19.6   217    25.1   1007.8    0.00 
 110   12:40   0.89   69.8    59   20.9   216    26.3   1007.8    0.00 
 110   12:50   0.89   70.2    58   20.4   218    25.6   1007.8    0.00 
 110   13:00   0.88   70.6    58   20.7   214    27.0   1007.5    0.00 
 110   13:10   0.87   70.5    58   22.0   211    26.2   1007.5    0.00 
 110   13:20   0.85   71.1    57   21.1   212    26.3   1007.5    0.00 
 110   13:30   0.84   71.6    56   22.0   220    27.8   1007.1    0.00 
 110   13:40   0.83   71.7    56   23.1   217    28.4   1007.1    0.00 
 110   13:50   0.81   72.1    55   23.1   220    28.9   1006.8    0.00 
 110   14:00   0.80   72.1    55   23.6   218    31.4   1006.8    0.00 
 110   14:10   0.78   72.2    55   24.1   212    29.7   1006.8    0.00 
 110   14:20   0.76   72.1    55   23.1   218    29.6   1006.4    0.00 
 110   14:30   0.74   72.0    56   24.2   215    30.0   1006.4    0.00 
 110   14:40   0.72   71.7    56   23.5   217    29.8   1006.4    0.00 
 110   14:50   0.70   71.8    56   23.8   217    30.8   1006.1    0.00 
 110   15:00   0.67   71.5    56   25.4   219    32.2   1006.1    0.00 
 110   15:10   0.64   71.6    56   25.9   218    32.3   1006.1    0.00 
 110   15:20   0.62   70.9    57   26.5   214    32.6   1006.1    0.00 
 110   15:30   0.59   70.6    57   27.0   213    33.8   1005.8    0.00 
 110   15:40   0.57   70.1    57   28.4   212    34.3   1005.8    0.00 
 110   15:50   0.55   70.1    57   26.3   217    33.7   1005.8    0.00 
 110   16:00   0.53   69.9    58   26.0   217    33.2   1005.8    0.00 
 110   16:10   0.52   70.2    58   26.5   219    34.5   1005.8    0.00 
 110   16:20   0.53   70.1    58   25.9   218    32.9   1005.8    0.00 
 110   16:30   0.55   69.9    58   28.6   218    34.9   1005.8    0.00 
 110   16:40   0.51   69.7    58   27.7   219    32.8   1005.8    0.00 
 110   16:50   0.39   69.0    59   27.8   219    35.7   1005.8    0.00 
 110   17:00   0.26   67.8    61   28.6   216    35.2   1005.8    0.00 
 110   17:10   0.18   66.5    63   28.4   216    35.1   1005.8    0.00 
 110   17:20   0.15   65.8    64   27.3   214    35.7   1005.8    0.00 
 110   17:30   0.12   65.5    65   26.7   215    32.7   1005.8    0.00 
 110   17:40   0.09   64.8    66   25.5   216    33.3   1005.8    0.00 
 110   17:50   0.07   64.3    68   26.8   214    32.4   1005.8    0.00 
 110   18:00   0.07   63.7    68   23.4   216    30.7   1005.8    0.00 
 110   18:10   0.06   63.2    69   24.2   217    31.7   1005.8    0.00 
 110   18:20   0.07   62.7    68   25.4   216    32.4   1005.8    0.00 
 110   18:30   0.05   62.4    69   26.1   217    33.0   1005.8    0.00 
 110   18:40   0.03   61.7    70   26.8   219    34.2   1005.8    0.00 
 110   18:50   0.01   60.9    71   26.1   217    33.2   1005.8    0.00 
 110   19:00   0.01   60.3    73   25.7   216    31.6   1005.8    0.00 
 110   19:10   0.00   59.7    74   24.8   215    31.6   1005.8    0.00 
 110   19:20   0.00   59.1    75   26.4   215    34.8   1006.1    0.00 
 110   19:30   0.00   58.7    76   25.7   216    35.7   1006.1    0.00 
 110   19:40   0.00   58.4    77   24.5   216    32.0   1006.1    0.00 
 110   19:50   0.00   58.2    78   26.6   217    38.0   1006.1    0.00 
 110   20:00   0.00   57.8    79   26.7   215    33.0   1006.1    0.00 
 110   20:10   0.00   57.5    80   26.7   216    34.6   1006.1    0.00 
 110   20:20   0.00   57.3    80   26.6   217    34.8   1006.1    0.00 
 110   20:30   0.00   57.1    80   29.3   218    36.1   1006.1    0.00 
 110   20:40   0.00   56.8    81   27.6   217    36.7   1006.1    0.00 
 110   20:50   0.00   56.6    82   29.3   217    36.2   1006.1    0.00 
 110   21:00   0.00   56.2    82   28.5   218    35.4   1006.1    0.00 
 110   21:10   0.00   56.0    83   29.8   215    37.9   1006.1    0.00 
 110   21:20   0.00   55.7    84   26.6   210    34.4   1006.1    0.00 
 110   21:30   0.00   55.7    85   28.2   210    35.4   1006.1    0.00 
 110   21:40   0.00   55.5    85   30.2   215    39.8   1005.8    0.00 
 110   21:50   0.00   55.3    85   31.2   218    39.5   1005.8    0.00 
 110   22:00   0.00   55.2    85   31.4   216    40.1   1005.8    0.00 
 110   22:10   0.00   55.1    86   30.2   214    38.7   1005.8    0.00 
 110   22:20   0.00   54.8    87   30.4   213    40.0   1005.8    0.00 
 110   22:30   0.00   54.8    87   29.9   216    37.5   1005.8    0.00 
 110   22:40   0.00   54.8    87   30.4   218    38.2   1005.8    0.00 
 110   22:50   0.00   54.7    87   29.7   218    38.5   1006.1    0.00 
 110   23:00   0.00   54.7    87   28.8   218    35.8   1006.1    0.00 

Return to Jepson Prairie Reserve graphs page.


Western Regional Climate Center,wrcc@dri.edu